sensor_id;sensor_type;location;lat;lon;timestamp;P1;durP1;ratioP1;P2;durP2;ratioP2
22005;SDS011;11167;46.988;15.470;2023-05-07T00:01:03;3.35;;;3.00;;
22005;SDS011;11167;46.988;15.470;2023-05-07T00:03:06;2.85;;;2.50;;
22005;SDS011;11167;46.988;15.470;2023-05-07T00:05:07;2.72;;;2.50;;
22005;SDS011;11167;46.988;15.470;2023-05-07T00:07:09;2.83;;;2.62;;
22005;SDS011;11167;46.988;15.470;2023-05-07T00:09:10;3.37;;;2.80;;
22005;SDS011;11167;46.988;15.470;2023-05-07T00:11:11;3.00;;;2.60;;
22005;SDS011;11167;46.988;15.470;2023-05-07T00:13:12;3.27;;;2.98;;
22005;SDS011;11167;46.988;15.470;2023-05-07T00:15:13;3.00;;;2.70;;
22005;SDS011;11167;46.988;15.470;2023-05-07T00:17:14;3.05;;;2.80;;
22005;SDS011;11167;46.988;15.470;2023-05-07T00:19:15;3.15;;;2.85;;
22005;SDS011;11167;46.988;15.470;2023-05-07T00:21:17;3.40;;;2.60;;
22005;SDS011;11167;46.988;15.470;2023-05-07T00:23:18;3.37;;;2.98;;
22005;SDS011;11167;46.988;15.470;2023-05-07T00:25:19;3.33;;;3.02;;
22005;SDS011;11167;46.988;15.470;2023-05-07T00:27:21;3.00;;;2.70;;
22005;SDS011;11167;46.988;15.470;2023-05-07T00:29:22;3.33;;;2.92;;
22005;SDS011;11167;46.988;15.470;2023-05-07T00:31:24;3.30;;;2.77;;
22005;SDS011;11167;46.988;15.470;2023-05-07T00:33:25;4.00;;;3.10;;
22005;SDS011;11167;46.988;15.470;2023-05-07T00:35:28;3.10;;;2.80;;
22005;SDS011;11167;46.988;15.470;2023-05-07T00:37:30;2.95;;;2.67;;
22005;SDS011;11167;46.988;15.470;2023-05-07T00:39:31;3.77;;;3.10;;
22005;SDS011;11167;46.988;15.470;2023-05-07T00:41:32;3.25;;;2.72;;
22005;SDS011;11167;46.988;15.470;2023-05-07T00:43:33;5.08;;;3.08;;
22005;SDS011;11167;46.988;15.470;2023-05-07T00:45:34;4.40;;;2.90;;
22005;SDS011;11167;46.988;15.470;2023-05-07T00:47:35;3.10;;;2.90;;
22005;SDS011;11167;46.988;15.470;2023-05-07T00:49:38;3.87;;;3.42;;
22005;SDS011;11167;46.988;15.470;2023-05-07T00:51:41;3.17;;;2.87;;
22005;SDS011;11167;46.988;15.470;2023-05-07T00:53:43;4.53;;;3.17;;
22005;SDS011;11167;46.988;15.470;2023-05-07T00:55:45;4.83;;;3.10;;
22005;SDS011;11167;46.988;15.470;2023-05-07T00:57:46;3.70;;;3.40;;
22005;SDS011;11167;46.988;15.470;2023-05-07T00:59:48;3.62;;;3.22;;
22005;SDS011;11167;46.988;15.470;2023-05-07T01:01:49;3.50;;;3.20;;
22005;SDS011;11167;46.988;15.470;2023-05-07T01:03:50;3.92;;;3.22;;
22005;SDS011;11167;46.988;15.470;2023-05-07T01:05:51;3.92;;;3.52;;
22005;SDS011;11167;46.988;15.470;2023-05-07T01:07:55;4.58;;;3.30;;
22005;SDS011;11167;46.988;15.470;2023-05-07T01:09:58;4.62;;;3.20;;
22005;SDS011;11167;46.988;15.470;2023-05-07T01:11:59;3.25;;;2.95;;
22005;SDS011;11167;46.988;15.470;2023-05-07T01:14:00;3.20;;;2.85;;
22005;SDS011;11167;46.988;15.470;2023-05-07T01:16:02;3.35;;;2.72;;
22005;SDS011;11167;46.988;15.470;2023-05-07T01:18:04;3.65;;;3.35;;
22005;SDS011;11167;46.988;15.470;2023-05-07T01:20:06;3.55;;;3.12;;
22005;SDS011;11167;46.988;15.470;2023-05-07T01:22:09;4.00;;;3.60;;
22005;SDS011;11167;46.988;15.470;2023-05-07T01:24:15;3.37;;;3.05;;
22005;SDS011;11167;46.988;15.470;2023-05-07T01:26:16;3.40;;;3.10;;
22005;SDS011;11167;46.988;15.470;2023-05-07T01:28:19;3.80;;;2.90;;
22005;SDS011;11167;46.988;15.470;2023-05-07T01:30:20;3.30;;;3.00;;
22005;SDS011;11167;46.988;15.470;2023-05-07T01:32:43;4.00;;;3.17;;
22005;SDS011;11167;46.988;15.470;2023-05-07T01:34:45;4.28;;;3.20;;
22005;SDS011;11167;46.988;15.470;2023-05-07T01:36:49;3.60;;;3.10;;
22005;SDS011;11167;46.988;15.470;2023-05-07T01:38:50;3.47;;;3.00;;
22005;SDS011;11167;46.988;15.470;2023-05-07T01:40:52;5.28;;;3.37;;
22005;SDS011;11167;46.988;15.470;2023-05-07T01:42:54;3.62;;;3.33;;
22005;SDS011;11167;46.988;15.470;2023-05-07T01:44:56;3.25;;;2.95;;
22005;SDS011;11167;46.988;15.470;2023-05-07T01:46:57;3.50;;;3.08;;
22005;SDS011;11167;46.988;15.470;2023-05-07T01:48:59;3.50;;;3.08;;
22005;SDS011;11167;46.988;15.470;2023-05-07T01:51:01;3.10;;;2.80;;
22005;SDS011;11167;46.988;15.470;2023-05-07T01:53:03;4.33;;;3.00;;
22005;SDS011;11167;46.988;15.470;2023-05-07T01:55:05;3.42;;;3.10;;
22005;SDS011;11167;46.988;15.470;2023-05-07T01:57:07;4.70;;;3.50;;
22005;SDS011;11167;46.988;15.470;2023-05-07T01:59:08;3.15;;;2.75;;
22005;SDS011;11167;46.988;15.470;2023-05-07T02:01:09;2.80;;;2.60;;
22005;SDS011;11167;46.988;15.470;2023-05-07T02:03:10;2.85;;;2.65;;
22005;SDS011;11167;46.988;15.470;2023-05-07T02:05:13;3.05;;;2.85;;
22005;SDS011;11167;46.988;15.470;2023-05-07T02:07:14;2.70;;;2.50;;
22005;SDS011;11167;46.988;15.470;2023-05-07T02:09:15;2.75;;;2.52;;
22005;SDS011;11167;46.988;15.470;2023-05-07T02:11:16;3.12;;;2.60;;
22005;SDS011;11167;46.988;15.470;2023-05-07T02:13:17;2.83;;;2.62;;
22005;SDS011;11167;46.988;15.470;2023-05-07T02:15:20;3.02;;;2.80;;
22005;SDS011;11167;46.988;15.470;2023-05-07T02:17:22;2.80;;;2.60;;
22005;SDS011;11167;46.988;15.470;2023-05-07T02:19:23;2.62;;;2.42;;
22005;SDS011;11167;46.988;15.470;2023-05-07T02:21:24;3.08;;;2.72;;
22005;SDS011;11167;46.988;15.470;2023-05-07T02:23:25;3.12;;;2.83;;
22005;SDS011;11167;46.988;15.470;2023-05-07T02:25:26;3.77;;;2.67;;
22005;SDS011;11167;46.988;15.470;2023-05-07T02:27:28;3.55;;;2.77;;
22005;SDS011;11167;46.988;15.470;2023-05-07T02:29:29;2.75;;;2.55;;
22005;SDS011;11167;46.988;15.470;2023-05-07T02:31:30;2.62;;;2.42;;
22005;SDS011;11167;46.988;15.470;2023-05-07T02:33:31;2.72;;;2.40;;
22005;SDS011;11167;46.988;15.470;2023-05-07T02:35:33;2.77;;;2.58;;
22005;SDS011;11167;46.988;15.470;2023-05-07T02:37:35;2.55;;;2.35;;
22005;SDS011;11167;46.988;15.470;2023-05-07T02:39:35;2.75;;;2.55;;
22005;SDS011;11167;46.988;15.470;2023-05-07T02:41:37;2.98;;;2.75;;
22005;SDS011;11167;46.988;15.470;2023-05-07T02:43:38;2.85;;;2.30;;
22005;SDS011;11167;46.988;15.470;2023-05-07T02:45:40;2.70;;;2.50;;
22005;SDS011;11167;46.988;15.470;2023-05-07T02:47:41;2.92;;;2.60;;
22005;SDS011;11167;46.988;15.470;2023-05-07T02:49:42;2.72;;;2.50;;
22005;SDS011;11167;46.988;15.470;2023-05-07T02:51:43;3.05;;;2.70;;
22005;SDS011;11167;46.988;15.470;2023-05-07T02:53:44;2.67;;;2.47;;
22005;SDS011;11167;46.988;15.470;2023-05-07T02:55:46;2.77;;;2.58;;
22005;SDS011;11167;46.988;15.470;2023-05-07T02:57:47;2.40;;;2.20;;
22005;SDS011;11167;46.988;15.470;2023-05-07T02:59:48;2.60;;;2.40;;
22005;SDS011;11167;46.988;15.470;2023-05-07T03:01:49;6.08;;;2.37;;
22005;SDS011;11167;46.988;15.470;2023-05-07T03:03:50;2.60;;;2.40;;
22005;SDS011;11167;46.988;15.470;2023-05-07T03:05:51;2.58;;;2.37;;
22005;SDS011;11167;46.988;15.470;2023-05-07T03:07:52;2.95;;;2.30;;
22005;SDS011;11167;46.988;15.470;2023-05-07T03:09:53;2.62;;;2.42;;
22005;SDS011;11167;46.988;15.470;2023-05-07T03:11:54;2.92;;;2.55;;
22005;SDS011;11167;46.988;15.470;2023-05-07T03:13:57;2.62;;;2.42;;
22005;SDS011;11167;46.988;15.470;2023-05-07T03:15:59;2.30;;;2.08;;
22005;SDS011;11167;46.988;15.470;2023-05-07T03:18:00;2.52;;;2.33;;
22005;SDS011;11167;46.988;15.470;2023-05-07T03:20:02;2.87;;;2.30;;
22005;SDS011;11167;46.988;15.470;2023-05-07T03:22:03;2.50;;;2.17;;
22005;SDS011;11167;46.988;15.470;2023-05-07T03:24:05;2.20;;;2.00;;
22005;SDS011;11167;46.988;15.470;2023-05-07T03:26:06;2.42;;;2.22;;
22005;SDS011;11167;46.988;15.470;2023-05-07T03:28:07;2.70;;;2.37;;
22005;SDS011;11167;46.988;15.470;2023-05-07T03:30:08;2.70;;;2.17;;
22005;SDS011;11167;46.988;15.470;2023-05-07T03:32:10;3.67;;;2.15;;
22005;SDS011;11167;46.988;15.470;2023-05-07T03:34:11;2.45;;;2.25;;
22005;SDS011;11167;46.988;15.470;2023-05-07T03:36:12;2.95;;;2.58;;
22005;SDS011;11167;46.988;15.470;2023-05-07T03:38:13;2.55;;;2.35;;
22005;SDS011;11167;46.988;15.470;2023-05-07T03:40:16;2.85;;;2.60;;
22005;SDS011;11167;46.988;15.470;2023-05-07T03:42:18;2.60;;;2.40;;
22005;SDS011;11167;46.988;15.470;2023-05-07T03:44:19;2.87;;;2.67;;
22005;SDS011;11167;46.988;15.470;2023-05-07T03:46:20;3.33;;;3.02;;
22005;SDS011;11167;46.988;15.470;2023-05-07T03:48:21;3.30;;;3.00;;
22005;SDS011;11167;46.988;15.470;2023-05-07T03:50:22;3.22;;;2.92;;
22005;SDS011;11167;46.988;15.470;2023-05-07T03:52:23;3.62;;;3.30;;
22005;SDS011;11167;46.988;15.470;2023-05-07T03:54:27;3.50;;;3.20;;
22005;SDS011;11167;46.988;15.470;2023-05-07T03:56:29;3.47;;;3.17;;
22005;SDS011;11167;46.988;15.470;2023-05-07T03:58:31;3.35;;;3.05;;
22005;SDS011;11167;46.988;15.470;2023-05-07T04:00:32;3.92;;;3.58;;
22005;SDS011;11167;46.988;15.470;2023-05-07T04:02:35;3.72;;;3.42;;
22005;SDS011;11167;46.988;15.470;2023-05-07T04:04:36;3.87;;;3.52;;
22005;SDS011;11167;46.988;15.470;2023-05-07T04:06:37;3.98;;;3.60;;
22005;SDS011;11167;46.988;15.470;2023-05-07T04:08:38;3.77;;;3.47;;
22005;SDS011;11167;46.988;15.470;2023-05-07T04:10:40;3.72;;;3.35;;
22005;SDS011;11167;46.988;15.470;2023-05-07T04:12:41;3.67;;;3.33;;
22005;SDS011;11167;46.988;15.470;2023-05-07T04:14:43;3.40;;;3.10;;
22005;SDS011;11167;46.988;15.470;2023-05-07T04:16:44;3.85;;;3.45;;
22005;SDS011;11167;46.988;15.470;2023-05-07T04:18:45;3.80;;;3.50;;
22005;SDS011;11167;46.988;15.470;2023-05-07T04:20:46;3.30;;;3.00;;
22005;SDS011;11167;46.988;15.470;2023-05-07T04:22:47;3.37;;;3.08;;
22005;SDS011;11167;46.988;15.470;2023-05-07T04:24:48;3.60;;;3.30;;
22005;SDS011;11167;46.988;15.470;2023-05-07T04:26:50;4.15;;;3.75;;
22005;SDS011;11167;46.988;15.470;2023-05-07T04:28:51;3.60;;;3.17;;
22005;SDS011;11167;46.988;15.470;2023-05-07T04:30:52;3.85;;;3.42;;
22005;SDS011;11167;46.988;15.470;2023-05-07T04:32:53;3.70;;;3.40;;
22005;SDS011;11167;46.988;15.470;2023-05-07T04:34:55;3.50;;;3.20;;
22005;SDS011;11167;46.988;15.470;2023-05-07T04:36:59;3.30;;;2.95;;
22005;SDS011;11167;46.988;15.470;2023-05-07T04:39:02;3.22;;;2.92;;
22005;SDS011;11167;46.988;15.470;2023-05-07T04:41:05;3.40;;;3.10;;
22005;SDS011;11167;46.988;15.470;2023-05-07T04:43:06;3.47;;;3.17;;
22005;SDS011;11167;46.988;15.470;2023-05-07T04:45:09;3.35;;;3.05;;
22005;SDS011;11167;46.988;15.470;2023-05-07T04:47:11;3.47;;;3.17;;
22005;SDS011;11167;46.988;15.470;2023-05-07T04:49:12;3.40;;;3.10;;
22005;SDS011;11167;46.988;15.470;2023-05-07T04:51:13;3.52;;;3.10;;
22005;SDS011;11167;46.988;15.470;2023-05-07T04:53:14;3.05;;;2.85;;
22005;SDS011;11167;46.988;15.470;2023-05-07T04:55:16;4.25;;;3.10;;
22005;SDS011;11167;46.988;15.470;2023-05-07T04:57:17;3.08;;;2.87;;
22005;SDS011;11167;46.988;15.470;2023-05-07T04:59:18;3.05;;;2.83;;
22005;SDS011;11167;46.988;15.470;2023-05-07T05:01:19;3.02;;;2.72;;
22005;SDS011;11167;46.988;15.470;2023-05-07T05:03:20;3.35;;;3.05;;
22005;SDS011;11167;46.988;15.470;2023-05-07T05:05:22;2.95;;;2.65;;
22005;SDS011;11167;46.988;15.470;2023-05-07T05:07:23;3.30;;;3.00;;
22005;SDS011;11167;46.988;15.470;2023-05-07T05:09:25;3.30;;;3.00;;
22005;SDS011;11167;46.988;15.470;2023-05-07T05:11:26;3.30;;;2.98;;
22005;SDS011;11167;46.988;15.470;2023-05-07T05:13:27;3.12;;;2.70;;
22005;SDS011;11167;46.988;15.470;2023-05-07T05:15:28;2.90;;;2.70;;
22005;SDS011;11167;46.988;15.470;2023-05-07T05:17:29;3.33;;;3.02;;
22005;SDS011;11167;46.988;15.470;2023-05-07T05:19:30;3.65;;;2.80;;
22005;SDS011;11167;46.988;15.470;2023-05-07T05:21:31;3.05;;;2.83;;
22005;SDS011;11167;46.988;15.470;2023-05-07T05:23:33;3.10;;;2.80;;
22005;SDS011;11167;46.988;15.470;2023-05-07T05:25:34;3.15;;;2.85;;
22005;SDS011;11167;46.988;15.470;2023-05-07T05:27:35;3.20;;;2.90;;
22005;SDS011;11167;46.988;15.470;2023-05-07T05:29:36;3.30;;;3.00;;
22005;SDS011;11167;46.988;15.470;2023-05-07T05:31:37;3.30;;;2.87;;
22005;SDS011;11167;46.988;15.470;2023-05-07T05:33:38;2.65;;;2.45;;
22005;SDS011;11167;46.988;15.470;2023-05-07T05:35:41;3.22;;;2.92;;
22005;SDS011;11167;46.988;15.470;2023-05-07T05:37:43;3.08;;;2.75;;
22005;SDS011;11167;46.988;15.470;2023-05-07T05:39:44;3.27;;;2.90;;
22005;SDS011;11167;46.988;15.470;2023-05-07T05:41:45;2.98;;;2.67;;
22005;SDS011;11167;46.988;15.470;2023-05-07T05:43:47;3.02;;;2.80;;
22005;SDS011;11167;46.988;15.470;2023-05-07T05:45:48;3.00;;;2.67;;
22005;SDS011;11167;46.988;15.470;2023-05-07T05:47:50;2.72;;;2.52;;
22005;SDS011;11167;46.988;15.470;2023-05-07T05:49:51;2.72;;;2.52;;
22005;SDS011;11167;46.988;15.470;2023-05-07T05:51:52;2.72;;;2.52;;
22005;SDS011;11167;46.988;15.470;2023-05-07T05:53:53;2.90;;;2.60;;
22005;SDS011;11167;46.988;15.470;2023-05-07T05:55:54;2.95;;;2.65;;
22005;SDS011;11167;46.988;15.470;2023-05-07T05:57:55;2.80;;;2.60;;
22005;SDS011;11167;46.988;15.470;2023-05-07T05:59:57;2.70;;;2.50;;
22005;SDS011;11167;46.988;15.470;2023-05-07T06:01:58;2.47;;;2.27;;
22005;SDS011;11167;46.988;15.470;2023-05-07T06:03:59;2.42;;;2.22;;
22005;SDS011;11167;46.988;15.470;2023-05-07T06:06:00;2.40;;;2.20;;
22005;SDS011;11167;46.988;15.470;2023-05-07T06:08:01;2.55;;;2.35;;
22005;SDS011;11167;46.988;15.470;2023-05-07T06:10:03;2.60;;;2.40;;
22005;SDS011;11167;46.988;15.470;2023-05-07T06:12:04;2.60;;;2.40;;
22005;SDS011;11167;46.988;15.470;2023-05-07T06:14:06;3.42;;;2.40;;
22005;SDS011;11167;46.988;15.470;2023-05-07T06:16:07;2.45;;;2.25;;
22005;SDS011;11167;46.988;15.470;2023-05-07T06:18:09;2.30;;;2.10;;
22005;SDS011;11167;46.988;15.470;2023-05-07T06:20:10;2.75;;;2.37;;
22005;SDS011;11167;46.988;15.470;2023-05-07T06:22:11;2.15;;;1.92;;
22005;SDS011;11167;46.988;15.470;2023-05-07T06:24:12;2.22;;;2.05;;
22005;SDS011;11167;46.988;15.470;2023-05-07T06:26:13;2.35;;;2.15;;
22005;SDS011;11167;46.988;15.470;2023-05-07T06:28:14;3.27;;;2.00;;
22005;SDS011;11167;46.988;15.470;2023-05-07T06:30:16;2.20;;;2.00;;
22005;SDS011;11167;46.988;15.470;2023-05-07T06:32:17;2.33;;;2.12;;
22005;SDS011;11167;46.988;15.470;2023-05-07T06:34:19;2.15;;;1.95;;
22005;SDS011;11167;46.988;15.470;2023-05-07T06:36:20;1.85;;;1.75;;
22005;SDS011;11167;46.988;15.470;2023-05-07T06:38:21;2.10;;;1.98;;
22005;SDS011;11167;46.988;15.470;2023-05-07T06:40:22;1.90;;;1.80;;
22005;SDS011;11167;46.988;15.470;2023-05-07T06:42:23;1.92;;;1.80;;
22005;SDS011;11167;46.988;15.470;2023-05-07T06:44:25;1.70;;;1.60;;
22005;SDS011;11167;46.988;15.470;2023-05-07T06:46:26;1.77;;;1.67;;
22005;SDS011;11167;46.988;15.470;2023-05-07T06:48:28;1.95;;;1.75;;
22005;SDS011;11167;46.988;15.470;2023-05-07T06:50:29;1.55;;;1.42;;
22005;SDS011;11167;46.988;15.470;2023-05-07T06:52:30;1.90;;;1.60;;
22005;SDS011;11167;46.988;15.470;2023-05-07T06:54:32;2.02;;;1.67;;
22005;SDS011;11167;46.988;15.470;2023-05-07T06:56:33;1.80;;;1.70;;
22005;SDS011;11167;46.988;15.470;2023-05-07T06:58:34;2.00;;;1.75;;
22005;SDS011;11167;46.988;15.470;2023-05-07T07:00:36;1.70;;;1.60;;
22005;SDS011;11167;46.988;15.470;2023-05-07T07:02:37;1.90;;;1.70;;
22005;SDS011;11167;46.988;15.470;2023-05-07T07:04:38;1.77;;;1.67;;
22005;SDS011;11167;46.988;15.470;2023-05-07T07:06:39;3.33;;;1.60;;
22005;SDS011;11167;46.988;15.470;2023-05-07T07:08:40;1.60;;;1.50;;
22005;SDS011;11167;46.988;15.470;2023-05-07T07:10:41;1.80;;;1.57;;
22005;SDS011;11167;46.988;15.470;2023-05-07T07:12:42;2.05;;;1.50;;
22005;SDS011;11167;46.988;15.470;2023-05-07T07:14:44;1.70;;;1.60;;
22005;SDS011;11167;46.988;15.470;2023-05-07T07:16:45;1.70;;;1.60;;
22005;SDS011;11167;46.988;15.470;2023-05-07T07:18:47;1.42;;;1.32;;
22005;SDS011;11167;46.988;15.470;2023-05-07T07:20:48;1.77;;;1.42;;
22005;SDS011;11167;46.988;15.470;2023-05-07T07:22:49;2.05;;;1.67;;
22005;SDS011;11167;46.988;15.470;2023-05-07T07:24:51;2.17;;;1.50;;
22005;SDS011;11167;46.988;15.470;2023-05-07T07:26:53;1.80;;;1.70;;
22005;SDS011;11167;46.988;15.470;2023-05-07T07:28:55;1.57;;;1.47;;
22005;SDS011;11167;46.988;15.470;2023-05-07T07:30:56;2.00;;;1.80;;
22005;SDS011;11167;46.988;15.470;2023-05-07T07:32:58;1.70;;;1.60;;
22005;SDS011;11167;46.988;15.470;2023-05-07T07:35:03;1.82;;;1.72;;
22005;SDS011;11167;46.988;15.470;2023-05-07T07:37:05;1.80;;;1.60;;
22005;SDS011;11167;46.988;15.470;2023-05-07T07:39:06;1.85;;;1.52;;
22005;SDS011;11167;46.988;15.470;2023-05-07T07:41:08;1.50;;;1.40;;
22005;SDS011;11167;46.988;15.470;2023-05-07T07:43:10;1.67;;;1.52;;
22005;SDS011;11167;46.988;15.470;2023-05-07T07:45:11;2.17;;;1.52;;
22005;SDS011;11167;46.988;15.470;2023-05-07T07:47:13;1.70;;;1.60;;
22005;SDS011;11167;46.988;15.470;2023-05-07T07:49:14;1.75;;;1.65;;
22005;SDS011;11167;46.988;15.470;2023-05-07T07:51:15;1.70;;;1.60;;
22005;SDS011;11167;46.988;15.470;2023-05-07T07:53:17;1.50;;;1.40;;
22005;SDS011;11167;46.988;15.470;2023-05-07T07:55:19;2.05;;;1.85;;
22005;SDS011;11167;46.988;15.470;2023-05-07T07:57:23;2.02;;;1.70;;
22005;SDS011;11167;46.988;15.470;2023-05-07T07:59:24;1.65;;;1.50;;
22005;SDS011;11167;46.988;15.470;2023-05-07T08:01:25;1.42;;;1.32;;
22005;SDS011;11167;46.988;15.470;2023-05-07T08:03:26;1.92;;;1.80;;
22005;SDS011;11167;46.988;15.470;2023-05-07T08:05:28;2.67;;;1.72;;
22005;SDS011;11167;46.988;15.470;2023-05-07T08:07:30;2.05;;;1.70;;
22005;SDS011;11167;46.988;15.470;2023-05-07T08:09:31;1.82;;;1.70;;
22005;SDS011;11167;46.988;15.470;2023-05-07T08:11:32;1.82;;;1.72;;
22005;SDS011;11167;46.988;15.470;2023-05-07T08:13:33;2.05;;;1.85;;
22005;SDS011;11167;46.988;15.470;2023-05-07T08:15:35;2.02;;;1.72;;
22005;SDS011;11167;46.988;15.470;2023-05-07T08:17:36;1.80;;;1.70;;
22005;SDS011;11167;46.988;15.470;2023-05-07T08:19:37;2.42;;;1.75;;
22005;SDS011;11167;46.988;15.470;2023-05-07T08:21:38;1.92;;;1.65;;
22005;SDS011;11167;46.988;15.470;2023-05-07T08:26:38;2.37;;;1.90;;
22005;SDS011;11167;46.988;15.470;2023-05-07T08:28:39;2.00;;;1.80;;
22005;SDS011;11167;46.988;15.470;2023-05-07T08:30:41;2.27;;;1.72;;
22005;SDS011;11167;46.988;15.470;2023-05-07T08:32:42;1.80;;;1.60;;
22005;SDS011;11167;46.988;15.470;2023-05-07T08:34:43;1.57;;;1.47;;
22005;SDS011;11167;46.988;15.470;2023-05-07T08:36:44;2.10;;;1.62;;
22005;SDS011;11167;46.988;15.470;2023-05-07T08:38:47;2.10;;;1.90;;
22005;SDS011;11167;46.988;15.470;2023-05-07T08:40:48;1.95;;;1.85;;
22005;SDS011;11167;46.988;15.470;2023-05-07T08:42:49;1.60;;;1.50;;
22005;SDS011;11167;46.988;15.470;2023-05-07T08:44:52;2.00;;;1.90;;
22005;SDS011;11167;46.988;15.470;2023-05-07T08:46:57;2.58;;;1.80;;
22005;SDS011;11167;46.988;15.470;2023-05-07T08:49:01;1.82;;;1.67;;
22005;SDS011;11167;46.988;15.470;2023-05-07T08:51:03;2.20;;;2.00;;
22005;SDS011;11167;46.988;15.470;2023-05-07T08:53:04;2.00;;;1.80;;
22005;SDS011;11167;46.988;15.470;2023-05-07T08:55:06;2.12;;;1.90;;
22005;SDS011;11167;46.988;15.470;2023-05-07T08:57:08;1.62;;;1.52;;
22005;SDS011;11167;46.988;15.470;2023-05-07T08:59:09;2.55;;;1.90;;
22005;SDS011;11167;46.988;15.470;2023-05-07T09:01:14;1.98;;;1.80;;
22005;SDS011;11167;46.988;15.470;2023-05-07T09:03:16;1.80;;;1.70;;
22005;SDS011;11167;46.988;15.470;2023-05-07T09:05:18;1.85;;;1.72;;
22005;SDS011;11167;46.988;15.470;2023-05-07T09:07:20;2.15;;;1.80;;
22005;SDS011;11167;46.988;15.470;2023-05-07T09:09:22;2.00;;;1.80;;
22005;SDS011;11167;46.988;15.470;2023-05-07T09:11:23;1.80;;;1.62;;
22005;SDS011;11167;46.988;15.470;2023-05-07T09:13:25;2.60;;;1.95;;
22005;SDS011;11167;46.988;15.470;2023-05-07T09:15:28;2.07;;;1.77;;
22005;SDS011;11167;46.988;15.470;2023-05-07T09:17:29;2.20;;;2.00;;
22005;SDS011;11167;46.988;15.470;2023-05-07T09:19:30;1.80;;;1.70;;
22005;SDS011;11167;46.988;15.470;2023-05-07T09:21:31;2.12;;;1.92;;
22005;SDS011;11167;46.988;15.470;2023-05-07T09:23:32;2.22;;;1.72;;
22005;SDS011;11167;46.988;15.470;2023-05-07T09:25:34;2.33;;;1.80;;
22005;SDS011;11167;46.988;15.470;2023-05-07T09:27:36;3.72;;;1.77;;
22005;SDS011;11167;46.988;15.470;2023-05-07T09:29:37;2.02;;;1.82;;
22005;SDS011;11167;46.988;15.470;2023-05-07T09:31:38;1.60;;;1.50;;
22005;SDS011;11167;46.988;15.470;2023-05-07T09:33:39;2.17;;;1.82;;
22005;SDS011;11167;46.988;15.470;2023-05-07T09:35:40;2.27;;;2.08;;
22005;SDS011;11167;46.988;15.470;2023-05-07T09:37:42;2.35;;;2.00;;
22005;SDS011;11167;46.988;15.470;2023-05-07T09:39:43;2.08;;;1.70;;
22005;SDS011;11167;46.988;15.470;2023-05-07T09:41:46;1.65;;;1.55;;
22005;SDS011;11167;46.988;15.470;2023-05-07T09:43:53;1.90;;;1.77;;
22005;SDS011;11167;46.988;15.470;2023-05-07T09:45:55;2.12;;;1.92;;
22005;SDS011;11167;46.988;15.470;2023-05-07T09:47:58;1.80;;;1.70;;
22005;SDS011;11167;46.988;15.470;2023-05-07T09:50:22;1.80;;;1.70;;
22005;SDS011;11167;46.988;15.470;2023-05-07T09:52:30;2.58;;;1.70;;
22005;SDS011;11167;46.988;15.470;2023-05-07T09:54:35;1.90;;;1.80;;
22005;SDS011;11167;46.988;15.470;2023-05-07T09:56:38;1.87;;;1.77;;
22005;SDS011;11167;46.988;15.470;2023-05-07T10:00:44;1.77;;;1.67;;
22005;SDS011;11167;46.988;15.470;2023-05-07T10:02:48;2.00;;;1.80;;
22005;SDS011;11167;46.988;15.470;2023-05-07T10:04:53;1.75;;;1.52;;
22005;SDS011;11167;46.988;15.470;2023-05-07T10:06:55;1.50;;;1.40;;
22005;SDS011;11167;46.988;15.470;2023-05-07T10:08:57;2.15;;;1.70;;
22005;SDS011;11167;46.988;15.470;2023-05-07T10:10:59;1.77;;;1.67;;
22005;SDS011;11167;46.988;15.470;2023-05-07T10:13:01;3.42;;;1.62;;
22005;SDS011;11167;46.988;15.470;2023-05-07T10:15:05;1.77;;;1.50;;
22005;SDS011;11167;46.988;15.470;2023-05-07T10:17:08;1.60;;;1.50;;
22005;SDS011;11167;46.988;15.470;2023-05-07T10:19:12;1.70;;;1.60;;
22005;SDS011;11167;46.988;15.470;2023-05-07T10:21:17;1.55;;;1.40;;
22005;SDS011;11167;46.988;15.470;2023-05-07T10:23:21;1.60;;;1.50;;
22005;SDS011;11167;46.988;15.470;2023-05-07T10:25:31;1.52;;;1.42;;
22005;SDS011;11167;46.988;15.470;2023-05-07T10:27:33;1.75;;;1.65;;
22005;SDS011;11167;46.988;15.470;2023-05-07T10:33:57;1.85;;;1.70;;
22005;SDS011;11167;46.988;15.470;2023-05-07T10:36:00;1.50;;;1.40;;
22005;SDS011;11167;46.988;15.470;2023-05-07T10:38:05;2.00;;;1.80;;
22005;SDS011;11167;46.988;15.470;2023-05-07T10:40:07;1.70;;;1.60;;
22005;SDS011;11167;46.988;15.470;2023-05-07T10:42:11;1.85;;;1.70;;
22005;SDS011;11167;46.988;15.470;2023-05-07T10:44:24;1.62;;;1.32;;
22005;SDS011;11167;46.988;15.470;2023-05-07T10:46:27;1.60;;;1.50;;
22005;SDS011;11167;46.988;15.470;2023-05-07T10:48:28;1.60;;;1.50;;
22005;SDS011;11167;46.988;15.470;2023-05-07T10:50:29;1.52;;;1.42;;
22005;SDS011;11167;46.988;15.470;2023-05-07T10:52:30;1.70;;;1.60;;
22005;SDS011;11167;46.988;15.470;2023-05-07T10:54:31;1.65;;;1.52;;
22005;SDS011;11167;46.988;15.470;2023-05-07T10:56:34;1.22;;;1.12;;
22005;SDS011;11167;46.988;15.470;2023-05-07T10:58:36;1.70;;;1.60;;
22005;SDS011;11167;46.988;15.470;2023-05-07T11:05:23;1.50;;;1.40;;
22005;SDS011;11167;46.988;15.470;2023-05-07T11:07:25;2.58;;;1.65;;
22005;SDS011;11167;46.988;15.470;2023-05-07T11:10:13;1.47;;;1.37;;
22005;SDS011;11167;46.988;15.470;2023-05-07T11:11:50;1.55;;;1.42;;
22005;SDS011;11167;46.988;15.470;2023-05-07T11:13:57;1.40;;;1.30;;
22005;SDS011;11167;46.988;15.470;2023-05-07T11:15:58;1.80;;;1.70;;
22005;SDS011;11167;46.988;15.470;2023-05-07T11:17:59;1.82;;;1.60;;
22005;SDS011;11167;46.988;15.470;2023-05-07T11:20:01;1.82;;;1.45;;
22005;SDS011;11167;46.988;15.470;2023-05-07T11:22:03;1.52;;;1.40;;
22005;SDS011;11167;46.988;15.470;2023-05-07T11:24:05;1.82;;;1.57;;
22005;SDS011;11167;46.988;15.470;2023-05-07T11:26:07;1.50;;;1.40;;
22005;SDS011;11167;46.988;15.470;2023-05-07T11:28:10;1.42;;;1.32;;
22005;SDS011;11167;46.988;15.470;2023-05-07T11:30:21;1.50;;;1.40;;
22005;SDS011;11167;46.988;15.470;2023-05-07T11:32:28;1.40;;;1.30;;
22005;SDS011;11167;46.988;15.470;2023-05-07T11:34:28;1.70;;;1.40;;
22005;SDS011;11167;46.988;15.470;2023-05-07T11:36:30;1.85;;;1.67;;
22005;SDS011;11167;46.988;15.470;2023-05-07T11:38:36;1.75;;;1.60;;
22005;SDS011;11167;46.988;15.470;2023-05-07T11:40:48;1.75;;;1.50;;
22005;SDS011;11167;46.988;15.470;2023-05-07T11:42:51;1.50;;;1.40;;
22005;SDS011;11167;46.988;15.470;2023-05-07T11:44:53;1.80;;;1.70;;
22005;SDS011;11167;46.988;15.470;2023-05-07T11:46:54;1.50;;;1.30;;
22005;SDS011;11167;46.988;15.470;2023-05-07T11:48:55;1.60;;;1.50;;
22005;SDS011;11167;46.988;15.470;2023-05-07T11:51:03;1.30;;;1.20;;
22005;SDS011;11167;46.988;15.470;2023-05-07T11:53:09;1.50;;;1.40;;
22005;SDS011;11167;46.988;15.470;2023-05-07T11:55:10;1.50;;;1.40;;
22005;SDS011;11167;46.988;15.470;2023-05-07T11:57:15;1.37;;;1.27;;
22005;SDS011;11167;46.988;15.470;2023-05-07T11:59:19;2.10;;;1.65;;
22005;SDS011;11167;46.988;15.470;2023-05-07T12:01:20;1.62;;;1.52;;
22005;SDS011;11167;46.988;15.470;2023-05-07T12:03:21;1.60;;;1.50;;
22005;SDS011;11167;46.988;15.470;2023-05-07T12:05:22;1.57;;;1.47;;
22005;SDS011;11167;46.988;15.470;2023-05-07T12:07:23;1.52;;;1.40;;
22005;SDS011;11167;46.988;15.470;2023-05-07T12:09:25;1.60;;;1.50;;
22005;SDS011;11167;46.988;15.470;2023-05-07T12:11:26;1.52;;;1.42;;
22005;SDS011;11167;46.988;15.470;2023-05-07T12:13:27;1.62;;;1.52;;
22005;SDS011;11167;46.988;15.470;2023-05-07T12:15:29;1.50;;;1.40;;
22005;SDS011;11167;46.988;15.470;2023-05-07T12:17:30;1.45;;;1.35;;